Time;durP1;ratioP1;P1;durP2;ratioP2;P2;SDS_P1;SDS_P2;PMS_P1;PMS_P2;Temp;Humidity;BMP_temperature;BMP_pressure;BME280_temperature;BME280_humidity;BME280_pressure;Samples;Min_cycle;Max_cycle;Signal;HPM_P1;HPM_P2
2020/12/06 00:01:37;;;;;;;22.93;11.70;;;4.80;88.50;;;;;;5036420;28;20025;-77
2020/12/06 00:04:07;;;;;;;24.17;11.50;;;4.80;88.50;;;;;;5035877;28;20029;-78
2020/12/06 00:06:33;;;;;;;23.37;11.20;;;4.70;88.60;;;;;;5030749;28;20021;-78
2020/12/06 00:08:59;;;;;;;23.47;12.10;;;4.70;88.60;;;;;;5025692;28;20571;-79
2020/12/06 00:11:24;;;;;;;23.13;12.17;;;4.70;88.50;;;;;;5022989;28;20026;-77
2020/12/06 00:13:50;;;;;;;26.60;12.30;;;4.70;88.80;;;;;;5031847;28;20025;-77
2020/12/06 00:16:20;;;;;;;26.67;12.80;;;4.70;89.00;;;;;;5036021;28;20068;-78
2020/12/06 00:18:47;;;;;;;26.37;12.03;;;4.70;89.10;;;;;;5053449;28;20009;-77
2020/12/06 00:21:14;;;;;;;26.20;12.20;;;4.70;88.80;;;;;;5041253;28;20041;-76
2020/12/06 00:23:40;;;;;;;23.00;12.33;;;4.70;89.10;;;;;;5035046;28;20064;-76
2020/12/06 00:26:06;;;;;;;24.73;12.33;;;4.80;89.10;;;;;;5036102;28;20037;-78
2020/12/06 00:28:33;;;;;;;23.53;11.23;;;4.80;88.90;;;;;;5035515;28;20028;-76
2020/12/06 00:30:58;;;;;;;23.03;11.93;;;4.80;88.90;;;;;;5025130;28;20047;-77
2020/12/06 00:33:24;;;;;;;24.37;12.00;;;4.80;88.70;;;;;;5049189;28;20068;-77
2020/12/06 00:35:50;;;;;;;25.13;11.93;;;4.80;88.80;;;;;;5029530;28;20099;-78
2020/12/06 00:38:15;;;;;;;25.87;12.63;;;4.80;88.60;;;;;;5052556;28;20028;-76
2020/12/06 00:40:41;;;;;;;25.60;12.53;;;4.80;88.90;;;;;;5054612;28;20020;-76
2020/12/06 00:43:07;;;;;;;24.07;11.90;;;4.70;88.50;;;;;;5031946;28;20470;-77
2020/12/06 00:45:32;;;;;;;25.83;12.67;;;4.80;89.00;;;;;;5031290;28;20412;-77
2020/12/06 00:47:58;;;;;;;28.83;12.43;;;4.80;88.90;;;;;;5019459;28;20453;-75
2020/12/06 00:50:23;;;;;;;24.67;12.27;;;4.80;88.80;;;;;;5029412;28;20027;-76
2020/12/06 00:52:49;;;;;;;24.60;12.10;;;4.80;88.50;;;;;;5041445;28;20108;-79
2020/12/06 00:55:15;;;;;;;27.03;13.27;;;4.80;88.50;;;;;;5040312;28;20033;-77
2020/12/06 00:57:40;;;;;;;26.17;12.17;;;4.80;88.40;;;;;;5048017;28;20025;-77
2020/12/06 01:00:10;;;;;;;25.97;12.33;;;4.70;88.50;;;;;;5051821;28;20021;-76
2020/12/06 01:02:36;;;;;;;25.73;12.23;;;4.70;88.60;;;;;;5027901;28;20025;-77
2020/12/06 01:05:03;;;;;;;25.90;12.63;;;4.70;88.50;;;;;;5024745;28;20036;-76
2020/12/06 01:07:32;;;;;;;28.27;13.30;;;4.70;88.70;;;;;;5038333;28;20029;-77
2020/12/06 01:09:58;;;;;;;26.30;12.03;;;4.70;88.60;;;;;;5032248;28;20025;-77
2020/12/06 01:12:24;;;;;;;28.40;13.27;;;4.60;88.60;;;;;;5034752;28;20083;-78
2020/12/06 01:14:49;;;;;;;25.87;12.87;;;4.70;88.60;;;;;;5034427;28;20090;-78
2020/12/06 01:17:16;;;;;;;24.40;12.70;;;4.70;88.50;;;;;;5022542;28;20026;-76
2020/12/06 01:19:41;;;;;;;28.00;13.17;;;4.70;88.50;;;;;;5030828;28;20021;-78
2020/12/06 01:22:07;;;;;;;28.27;12.80;;;4.70;88.50;;;;;;5018000;28;20108;-77
2020/12/06 01:24:32;;;;;;;26.33;11.70;;;4.70;88.80;;;;;;5046286;28;20030;-77
2020/12/06 01:26:58;;;;;;;26.80;12.53;;;4.70;88.80;;;;;;5029137;28;20502;-78
2020/12/06 01:29:23;;;;;;;24.50;11.57;;;4.70;88.80;;;;;;5034950;28;20107;-77
2020/12/06 01:31:49;;;;;;;25.87;12.57;;;4.70;88.80;;;;;;5017454;28;20057;-80
2020/12/06 01:34:16;;;;;;;28.37;12.87;;;4.70;89.00;;;;;;5033140;28;20037;-77
2020/12/06 01:36:42;;;;;;;28.30;12.63;;;4.70;88.70;;;;;;5018956;28;20083;-77
2020/12/06 01:39:08;;;;;;;24.33;11.40;;;4.70;88.80;;;;;;5036664;28;20026;-77
2020/12/06 01:41:35;;;;;;;24.07;12.33;;;4.70;88.60;;;;;;5019594;28;20036;-78
2020/12/06 01:44:03;;;;;;;28.40;12.87;;;4.70;88.50;;;;;;5036716;28;20463;-78
2020/12/06 01:46:30;;;;;;;27.77;12.43;;;4.70;88.50;;;;;;5019623;28;20106;-78
2020/12/06 01:48:56;;;;;;;27.90;12.63;;;4.70;88.70;;;;;;5018875;28;20029;-78
2020/12/06 01:51:23;;;;;;;23.93;11.70;;;4.70;88.60;;;;;;5019547;28;20145;-78
2020/12/06 01:53:50;;;;;;;26.63;11.47;;;4.70;88.80;;;;;;5019313;28;20032;-78
2020/12/06 01:56:16;;;;;;;24.47;11.13;;;4.80;88.80;;;;;;5019088;28;20037;-78
2020/12/06 01:58:42;;;;;;;26.03;11.47;;;4.70;88.50;;;;;;5019281;28;20034;-78
2020/12/06 02:01:09;;;;;;;22.23;11.30;;;4.70;88.70;;;;;;5018762;28;20033;-80
2020/12/06 02:03:36;;;;;;;24.77;11.67;;;4.70;88.60;;;;;;5036908;28;20037;-78
2020/12/06 02:06:04;;;;;;;22.30;10.63;;;4.70;88.70;;;;;;5018669;28;20080;-78
2020/12/06 02:08:30;;;;;;;23.93;11.77;;;4.70;88.70;;;;;;5019173;28;20025;-78
2020/12/06 02:10:56;;;;;;;23.00;11.33;;;4.70;88.80;;;;;;5018449;28;20025;-78
2020/12/06 02:13:22;;;;;;;27.37;11.33;;;4.70;88.90;;;;;;5018940;28;20029;-78
2020/12/06 02:15:48;;;;;;;22.60;10.47;;;4.70;88.90;;;;;;5036505;28;20104;-77
2020/12/06 02:18:14;;;;;;;24.83;11.43;;;4.70;89.00;;;;;;5018399;28;20025;-78
2020/12/06 02:20:41;;;;;;;24.17;11.50;;;4.70;89.10;;;;;;5036377;28;20028;-78
2020/12/06 02:23:06;;;;;;;20.20;10.90;;;4.70;90.00;;;;;;5035513;28;20474;-78
2020/12/06 02:25:39;;;;;;;22.27;11.63;;;4.70;89.60;;;;;;5018460;28;20034;-78
2020/12/06 02:28:05;;;;;;;21.23;11.53;;;4.60;89.50;;;;;;5033100;28;20403;-78
2020/12/06 02:30:31;;;;;;;22.73;11.60;;;4.60;89.60;;;;;;5036268;28;20021;-77
2020/12/06 02:32:57;;;;;;;22.63;11.77;;;4.70;89.90;;;;;;5034512;28;20028;-78
2020/12/06 02:35:23;;;;;;;22.83;11.67;;;4.70;89.70;;;;;;5036003;28;20029;-76
2020/12/06 02:37:49;;;;;;;21.53;12.17;;;4.70;89.70;;;;;;5035174;28;20466;-78
2020/12/06 02:40:16;;;;;;;26.90;12.57;;;4.70;89.70;;;;;;5035617;28;20034;-78
2020/12/06 02:42:42;;;;;;;25.90;12.43;;;4.70;89.60;;;;;;5034698;28;20028;-77
2020/12/06 02:45:08;;;;;;;25.83;13.27;;;4.60;89.60;;;;;;5034062;28;20033;-77
2020/12/06 02:47:33;;;;;;;25.20;12.33;;;4.60;89.80;;;;;;5035208;28;20049;-77
2020/12/06 02:49:59;;;;;;;27.50;13.37;;;4.60;89.90;;;;;;5035234;28;20045;-78
2020/12/06 02:52:25;;;;;;;27.17;12.63;;;4.60;90.00;;;;;;5034328;28;20037;-77
2020/12/06 02:54:51;;;;;;;26.67;12.80;;;4.60;89.90;;;;;;5034090;28;20462;-77
2020/12/06 02:57:16;;;;;;;28.53;13.10;;;4.60;89.90;;;;;;5035055;28;20041;-77
2020/12/06 02:59:42;;;;;;;26.67;13.23;;;4.60;90.00;;;;;;5034381;28;20051;-77
2020/12/06 03:02:07;;;;;;;27.57;13.43;;;4.60;90.00;;;;;;5033996;28;20528;-77
2020/12/06 03:04:33;;;;;;;26.07;13.33;;;4.60;90.10;;;;;;5034080;28;20033;-77
2020/12/06 03:06:59;;;;;;;31.30;13.43;;;4.50;90.10;;;;;;5034037;28;20120;-78
2020/12/06 03:09:24;;;;;;;29.53;13.87;;;4.60;90.10;;;;;;5034434;28;20386;-77
2020/12/06 03:11:50;;;;;;;30.53;14.50;;;4.60;90.10;;;;;;5035531;28;20029;-77
2020/12/06 03:14:15;;;;;;;27.03;13.13;;;4.60;90.20;;;;;;5033760;28;20620;-77
2020/12/06 03:16:41;;;;;;;34.50;15.10;;;4.60;90.10;;;;;;5034397;28;20067;-77
2020/12/06 03:19:07;;;;;;;30.67;14.83;;;4.60;90.00;;;;;;5034089;28;20021;-77
2020/12/06 03:21:32;;;;;;;32.37;15.93;;;4.60;90.00;;;;;;5034412;28;20021;-77
2020/12/06 03:23:58;;;;;;;30.23;13.97;;;4.60;90.00;;;;;;5034000;28;20128;-78
2020/12/06 03:26:23;;;;;;;33.87;14.17;;;4.60;90.00;;;;;;5033753;28;20080;-76
2020/12/06 03:28:49;;;;;;;32.47;13.90;;;4.50;90.00;;;;;;5033882;28;20029;-77
2020/12/06 03:31:15;;;;;;;31.77;14.47;;;4.50;90.40;;;;;;5033295;28;20021;-77
2020/12/06 03:33:40;;;;;;;33.70;14.60;;;4.60;90.20;;;;;;5034047;28;20069;-76
2020/12/06 03:36:06;;;;;;;32.30;14.40;;;4.60;90.00;;;;;;5033494;28;20026;-78
2020/12/06 03:38:32;;;;;;;31.10;14.10;;;4.50;90.00;;;;;;5034085;28;20029;-78
2020/12/06 03:40:58;;;;;;;38.63;14.83;;;4.50;90.10;;;;;;5033626;28;20087;-79
2020/12/06 03:43:24;;;;;;;35.63;14.87;;;4.50;90.10;;;;;;5034012;28;20034;-78
2020/12/06 03:45:49;;;;;;;32.33;13.17;;;4.50;90.10;;;;;;5034136;28;20037;-77
2020/12/06 03:48:15;;;;;;;32.43;13.20;;;4.50;90.10;;;;;;5033435;28;20053;-78
2020/12/06 03:50:41;;;;;;;35.37;15.13;;;4.50;90.10;;;;;;5035018;28;20025;-78
2020/12/06 03:53:06;;;;;;;28.37;13.13;;;4.50;90.00;;;;;;5034440;28;20397;-78
2020/12/06 03:55:32;;;;;;;32.97;14.43;;;4.50;90.20;;;;;;5033748;28;20026;-78
2020/12/06 03:57:58;;;;;;;33.60;14.47;;;4.50;90.50;;;;;;5032115;28;20033;-82
2020/12/06 04:00:24;;;;;;;31.67;14.10;;;4.50;90.20;;;;;;5033841;28;20025;-77
2020/12/06 04:02:53;;;;;;;35.47;15.57;;;4.50;90.20;;;;;;5034152;28;20029;-77
2020/12/06 04:05:20;;;;;;;32.30;14.13;;;4.50;90.10;;;;;;5032835;28;20447;-78
2020/12/06 04:07:50;;;;;;;32.23;14.13;;;4.50;90.10;;;;;;5033529;28;20030;-78
2020/12/06 04:10:18;;;;;;;29.30;13.53;;;4.60;90.20;;;;;;5032847;28;20108;-78
2020/12/06 04:12:44;;;;;;;28.30;13.27;;;4.60;90.10;;;;;;5033161;28;20057;-77
2020/12/06 04:15:09;;;;;;;28.60;13.20;;;4.50;90.20;;;;;;5033819;28;20029;-78
2020/12/06 04:17:35;;;;;;;30.53;13.00;;;4.50;90.20;;;;;;5033219;28;20492;-78
2020/12/06 04:20:02;;;;;;;28.23;12.07;;;4.50;90.20;;;;;;5032627;28;20044;-78
2020/12/06 04:22:27;;;;;;;26.73;12.93;;;4.60;90.20;;;;;;5033455;28;20037;-77
2020/12/06 04:24:53;;;;;;;25.23;11.37;;;4.50;90.10;;;;;;5033014;28;20457;-77
2020/12/06 04:27:18;;;;;;;25.67;12.53;;;4.50;90.20;;;;;;5033486;28;20050;-77
2020/12/06 04:29:44;;;;;;;28.57;12.43;;;4.50;90.20;;;;;;5032937;28;20096;-77
2020/12/06 04:32:09;;;;;;;28.47;12.20;;;4.50;90.30;;;;;;5032551;28;20022;-78
2020/12/06 04:34:36;;;;;;;26.93;12.70;;;4.60;90.30;;;;;;5034092;28;20116;-77
2020/12/06 04:37:06;;;;;;;27.60;12.53;;;4.60;90.20;;;;;;5033519;28;20025;-79
2020/12/06 04:39:32;;;;;;;28.07;12.33;;;4.50;90.30;;;;;;5033064;28;20496;-77
2020/12/06 04:42:00;;;;;;;25.47;12.07;;;4.50;90.20;;;;;;5032900;28;20032;-77
2020/12/06 04:44:26;;;;;;;24.30;11.40;;;4.50;90.30;;;;;;5034090;28;20069;-77
2020/12/06 04:46:59;;;;;;;25.37;12.23;;;4.60;90.50;;;;;;5033196;28;20040;-77
2020/12/06 04:49:29;;;;;;;25.60;11.67;;;4.60;90.40;;;;;;5032329;28;20033;-78
2020/12/06 04:51:56;;;;;;;24.53;11.50;;;4.60;90.40;;;;;;5032448;28;20033;-78
2020/12/06 04:54:31;;;;;;;21.80;9.90;;;4.60;90.10;;;;;;5033519;28;20044;-78
2020/12/06 04:57:02;;;;;;;24.30;11.03;;;4.60;90.30;;;;;;5032266;28;20037;-76
2020/12/06 04:59:28;;;;;;;24.10;11.18;;;4.70;90.30;;;;;;5032376;28;20041;-77
2020/12/06 05:01:57;;;;;;;20.43;9.63;;;4.60;89.80;;;;;;5032183;28;20029;-76
2020/12/06 05:04:25;;;;;;;23.30;11.90;;;4.50;90.10;;;;;;5031937;28;20033;-77
2020/12/06 05:06:53;;;;;;;23.40;10.67;;;4.60;90.20;;;;;;5032559;28;20065;-78
2020/12/06 05:09:22;;;;;;;21.60;10.77;;;4.60;90.10;;;;;;5032912;28;20021;-78
2020/12/06 05:11:48;;;;;;;22.60;11.37;;;4.60;90.20;;;;;;5032265;28;20378;-77
2020/12/06 05:14:14;;;;;;;25.17;11.87;;;4.60;90.20;;;;;;5031659;28;20030;-77
2020/12/06 05:16:40;;;;;;;20.93;9.87;;;4.60;90.20;;;;;;5032199;28;20025;-77
2020/12/06 05:19:10;;;;;;;23.10;10.83;;;4.60;90.30;;;;;;5033024;28;20025;-78
2020/12/06 05:21:37;;;;;;;21.50;10.27;;;4.60;90.20;;;;;;5032183;28;20188;-77
2020/12/06 05:24:04;;;;;;;21.70;10.30;;;4.60;90.10;;;;;;5032161;28;20091;-79
2020/12/06 05:26:30;;;;;;;22.30;10.77;;;4.60;90.40;;;;;;5031757;28;20111;-77
2020/12/06 05:28:56;;;;;;;24.23;10.83;;;4.60;90.50;;;;;;5032508;28;20025;-77
2020/12/06 05:31:22;;;;;;;26.27;10.77;;;4.70;90.40;;;;;;5031870;28;20025;-79
2020/12/06 05:33:49;;;;;;;21.97;10.37;;;4.60;90.10;;;;;;5032513;28;20052;-78
2020/12/06 05:36:15;;;;;;;19.97;9.83;;;4.60;90.30;;;;;;5031947;28;20433;-77
2020/12/06 05:38:41;;;;;;;30.60;15.90;;;4.60;90.40;;;;;;5032238;28;20467;-77
2020/12/06 05:41:07;;;;;;;21.70;12.20;;;4.60;90.40;;;;;;5031287;28;20061;-77
2020/12/06 05:43:37;;;;;;;19.93;10.07;;;4.60;90.40;;;;;;5031768;28;20033;-80
2020/12/06 05:46:14;;;;;;;22.80;10.60;;;4.60;90.40;;;;;;5032208;28;20040;-77
2020/12/06 05:48:40;;;;;;;19.50;10.23;;;4.60;90.30;;;;;;5032082;28;20029;-78
2020/12/06 05:51:06;;;;;;;21.47;10.47;;;4.60;90.40;;;;;;5031568;28;20026;-78
2020/12/06 05:53:33;;;;;;;39.13;19.00;;;4.60;90.30;;;;;;5022371;28;20034;-82
2020/12/06 05:56:19;;;;;;;24.07;10.90;;;4.60;90.20;;;;;;5020972;28;20390;-78
2020/12/06 05:58:46;;;;;;;21.50;10.97;;;4.60;90.30;;;;;;5026787;28;20398;-83
2020/12/06 06:01:13;;;;;;;20.70;10.17;;;4.60;90.40;;;;;;5020282;28;20034;-86
2020/12/06 06:03:46;;;;;;;19.77;10.30;;;4.70;90.30;;;;;;5033686;28;20167;-86
2020/12/06 06:06:26;;;;;;;24.53;11.47;;;4.70;90.30;;;;;;5031717;28;20035;-85
2020/12/06 06:08:54;;;;;;;23.20;11.10;;;4.70;90.20;;;;;;5033146;28;20385;-77
2020/12/06 06:11:27;;;;;;;22.43;11.03;;;4.70;90.10;;;;;;5030165;28;20083;-77
2020/12/06 06:13:56;;;;;;;20.30;9.97;;;4.70;90.20;;;;;;5032034;28;20034;-79
2020/12/06 06:16:23;;;;;;;21.17;10.67;;;4.70;90.20;;;;;;5031669;28;20040;-80
2020/12/06 06:18:50;;;;;;;22.53;10.60;;;4.70;90.20;;;;;;5013199;28;20033;-82
2020/12/06 06:21:23;;;;;;;20.93;9.57;;;4.70;90.20;;;;;;5027350;28;20026;-82
2020/12/06 06:23:51;;;;;;;20.53;10.60;;;4.70;90.20;;;;;;5023861;28;20079;-83
2020/12/06 06:26:19;;;;;;;22.60;10.57;;;4.70;90.20;;;;;;5029949;28;20072;-82
2020/12/06 06:28:45;;;;;;;18.30;9.23;;;4.70;90.10;;;;;;5023939;28;20065;-82
2020/12/06 06:31:15;;;;;;;23.43;10.23;;;4.70;89.60;;;;;;5028275;28;20041;-82
2020/12/06 06:33:41;;;;;;;19.10;9.40;;;4.70;90.00;;;;;;5027302;28;20025;-82
2020/12/06 06:36:09;;;;;;;19.27;9.40;;;4.70;90.00;;;;;;5034817;28;20030;-83
2020/12/06 06:38:44;;;;;;;17.60;8.90;;;4.70;89.90;;;;;;5035359;28;20165;-82
2020/12/06 06:41:11;;;;;;;19.23;9.50;;;4.70;89.90;;;;;;5020197;28;20030;-83
2020/12/06 06:43:39;;;;;;;21.60;10.00;;;4.80;90.00;;;;;;5034674;28;20033;-78
2020/12/06 06:46:16;;;;;;;20.57;10.00;;;4.80;90.00;;;;;;5018180;28;20077;-84
2020/12/06 06:48:50;;;;;;;20.27;9.90;;;4.70;90.00;;;;;;5022128;28;20127;-82
2020/12/06 06:51:23;;;;;;;20.37;9.23;;;4.70;90.00;;;;;;5015327;28;20389;-82
2020/12/06 06:53:55;;;;;;;18.90;8.20;;;4.70;89.70;;;;;;5025700;28;20040;-80
2020/12/06 06:56:21;;;;;;;24.20;10.65;;;4.70;89.70;;;;;;5022934;28;20442;-81
2020/12/06 06:58:49;;;;;;;20.83;9.57;;;4.70;90.00;;;;;;5027032;28;20033;-82
2020/12/06 07:01:22;;;;;;;20.57;9.33;;;4.80;90.10;;;;;;5019933;28;20112;-84
2020/12/06 07:03:52;;;;;;;18.93;9.47;;;4.80;90.00;;;;;;5034189;28;20107;-85
2020/12/06 07:06:43;;;;;;;17.57;8.30;;;4.80;90.00;;;;;;5034148;28;20021;-85
2020/12/06 07:09:08;;;;;;;20.43;9.10;;;4.70;90.00;;;;;;5034249;28;20022;-86
2020/12/06 07:11:34;;;;;;;22.87;9.63;;;4.70;90.10;;;;;;5035955;28;20124;-85
2020/12/06 07:14:01;;;;;;;21.07;9.47;;;4.80;90.20;;;;;;5034929;28;20386;-85
2020/12/06 07:16:27;;;;;;;19.57;9.30;;;4.80;90.20;;;;;;5034654;28;20033;-85
2020/12/06 07:18:52;;;;;;;20.27;8.90;;;4.80;90.20;;;;;;5036106;28;20524;-84
2020/12/06 07:21:18;;;;;;;19.90;9.53;;;4.80;90.30;;;;;;5035515;28;20120;-85
2020/12/06 07:23:43;;;;;;;19.13;9.40;;;4.80;90.30;;;;;;5034869;28;20438;-85
2020/12/06 07:26:10;;;;;;;19.77;8.77;;;4.80;90.40;;;;;;5035235;28;20033;-88
2020/12/06 07:28:35;;;;;;;18.90;8.87;;;4.80;90.30;;;;;;5035458;28;20493;-84
2020/12/06 07:31:01;;;;;;;20.27;9.73;;;4.70;90.40;;;;;;5035528;28;20022;-84
2020/12/06 07:33:27;;;;;;;21.50;9.63;;;4.80;90.50;;;;;;5034123;28;20033;-84
2020/12/06 07:35:52;;;;;;;21.17;9.40;;;4.80;90.40;;;;;;5034583;28;20029;-84
2020/12/06 07:38:18;;;;;;;19.50;10.07;;;4.80;90.20;;;;;;5033732;28;20025;-84
2020/12/06 07:40:43;;;;;;;22.40;10.17;;;4.90;90.30;;;;;;5035571;28;20017;-85
2020/12/06 07:43:14;;;;;;;23.83;10.37;;;4.90;90.20;;;;;;5034556;28;20029;-84
2020/12/06 07:45:39;;;;;;;23.07;9.83;;;4.90;90.20;;;;;;5034351;28;20049;-84
2020/12/06 07:48:05;;;;;;;18.87;8.90;;;4.80;90.30;;;;;;5034454;28;20115;-84
2020/12/06 07:50:31;;;;;;;20.77;10.00;;;4.80;90.50;;;;;;5033806;28;20033;-84
2020/12/06 07:53:03;;;;;;;21.87;10.00;;;4.70;90.40;;;;;;5035508;28;20053;-85
2020/12/06 07:55:29;;;;;;;21.20;9.95;;;4.70;90.60;;;;;;5033479;28;20143;-84
2020/12/06 07:57:57;;;;;;;17.00;8.83;;;4.70;90.60;;;;;;5033934;28;20034;-84
2020/12/06 08:00:29;;;;;;;23.83;10.03;;;4.70;90.60;;;;;;5033774;28;20079;-85
2020/12/06 08:02:58;;;;;;;21.25;10.05;;;4.80;90.50;;;;;;5034191;28;20033;-85
2020/12/06 08:05:27;;;;;;;21.53;10.70;;;4.80;90.40;;;;;;5033371;28;20041;-85
2020/12/06 08:08:07;;;;;;;23.73;11.53;;;4.80;90.40;;;;;;5034039;28;20029;-85
2020/12/06 08:10:34;;;;;;;24.87;10.93;;;4.80;90.80;;;;;;5033739;28;20033;-84
2020/12/06 08:13:00;;;;;;;17.70;8.80;;;4.70;90.60;;;;;;5033852;28;20052;-84
2020/12/06 08:15:28;;;;;;;19.20;9.57;;;4.70;90.80;;;;;;5033191;28;20026;-85
2020/12/06 08:17:55;;;;;;;22.33;10.53;;;4.70;90.60;;;;;;5034001;28;20025;-84
2020/12/06 08:20:23;;;;;;;20.80;9.50;;;4.70;90.60;;;;;;5033139;28;20022;-85
2020/12/06 08:22:56;;;;;;;20.87;9.83;;;4.80;90.70;;;;;;5033679;28;20051;-84
2020/12/06 08:25:29;;;;;;;23.37;9.10;;;4.70;90.70;;;;;;5033257;28;20037;-85
2020/12/06 08:27:57;;;;;;;20.03;9.27;;;4.70;90.80;;;;;;5033174;28;20053;-84
2020/12/06 08:30:25;;;;;;;19.77;9.53;;;4.80;90.80;;;;;;5033266;28;20032;-84
2020/12/06 08:32:58;;;;;;;20.97;8.43;;;4.90;90.70;;;;;;5033942;28;20028;-84
2020/12/06 08:35:48;;;;;;;21.87;9.53;;;4.80;90.70;;;;;;5033690;28;20048;-84
2020/12/06 08:38:20;;;;;;;20.30;9.97;;;4.90;90.80;;;;;;5033233;28;20021;-88
2020/12/06 08:41:07;;;;;;;21.87;10.13;;;4.80;90.70;;;;;;5033787;28;20076;-84
2020/12/06 08:43:52;;;;;;;24.53;10.70;;;4.90;90.80;;;;;;5033022;28;20037;-84
2020/12/06 08:46:23;;;;;;;21.63;10.27;;;4.90;90.70;;;;;;5032863;28;20029;-84
2020/12/06 08:48:51;;;;;;;22.73;9.93;;;4.80;90.70;;;;;;5034373;28;20021;-84
2020/12/06 08:51:28;;;;;;;19.27;9.47;;;4.80;90.60;;;;;;5032804;28;20025;-84
2020/12/06 08:53:54;;;;;;;22.40;10.60;;;4.80;90.70;;;;;;5033718;28;20033;-84
2020/12/06 08:56:33;;;;;;;20.90;9.60;;;4.90;90.80;;;;;;5032672;28;20520;-84
2020/12/06 08:59:13;;;;;;;20.37;9.67;;;4.90;90.70;;;;;;5033549;28;20029;-84
2020/12/06 09:01:55;;;;;;;20.50;9.93;;;4.90;90.60;;;;;;5033778;28;20036;-84
2020/12/06 09:04:22;;;;;;;19.97;9.37;;;4.90;90.80;;;;;;5032498;28;20127;-85
2020/12/06 09:06:50;;;;;;;21.20;9.37;;;4.90;90.80;;;;;;5033258;28;20028;-85
2020/12/06 09:09:15;;;;;;;19.23;8.50;;;4.90;90.80;;;;;;5032546;28;20093;-85
2020/12/06 09:11:41;;;;;;;19.47;9.27;;;5.00;90.80;;;;;;5033211;28;20115;-84
2020/12/06 09:14:08;;;;;;;17.07;8.33;;;4.90;90.80;;;;;;5034029;28;20033;-83
2020/12/06 09:16:33;;;;;;;18.30;8.67;;;4.90;90.80;;;;;;5032602;28;20118;-85
2020/12/06 09:19:01;;;;;;;17.43;7.87;;;5.00;90.80;;;;;;5032946;28;20052;-85
2020/12/06 09:21:28;;;;;;;15.90;8.17;;;4.90;90.80;;;;;;5033543;28;20112;-86
2020/12/06 09:23:53;;;;;;;17.97;8.57;;;5.00;90.70;;;;;;5032925;28;20037;-85
2020/12/06 09:26:19;;;;;;;18.13;8.13;;;5.00;90.60;;;;;;5033020;28;20123;-86
2020/12/06 09:28:45;;;;;;;15.33;7.10;;;5.00;90.70;;;;;;5033002;28;20030;-86
2020/12/06 09:31:10;;;;;;;16.03;7.67;;;5.00;90.80;;;;;;5033925;28;20041;-86
2020/12/06 09:33:36;;;;;;;16.53;7.67;;;4.90;90.60;;;;;;5032308;28;20037;-85
2020/12/06 09:36:02;;;;;;;13.27;7.33;;;5.00;90.70;;;;;;5047144;28;20067;-85
2020/12/06 09:38:28;;;;;;;15.17;7.60;;;5.00;90.60;;;;;;5052204;28;20048;-85
2020/12/06 09:40:54;;;;;;;14.73;7.03;;;5.00;90.60;;;;;;5052770;28;20405;-85
2020/12/06 09:43:19;;;;;;;14.43;6.87;;;5.10;90.60;;;;;;5053185;28;20033;-85
2020/12/06 09:45:46;;;;;;;16.07;7.17;;;5.10;90.60;;;;;;5052824;28;20032;-85
2020/12/06 09:48:12;;;;;;;15.47;7.37;;;5.10;90.70;;;;;;5052853;28;20025;-85
2020/12/06 09:50:38;;;;;;;11.83;6.27;;;5.10;90.60;;;;;;5051796;28;20029;-85
2020/12/06 09:53:03;;;;;;;12.80;6.17;;;5.20;90.40;;;;;;5052483;28;20032;-85
2020/12/06 09:55:29;;;;;;;13.70;6.53;;;5.20;90.40;;;;;;5051875;28;20378;-85
2020/12/06 09:57:55;;;;;;;14.93;6.90;;;5.20;90.40;;;;;;5055955;28;20029;-85
2020/12/06 10:00:21;;;;;;;12.67;6.37;;;5.30;90.40;;;;;;5055880;28;20021;-85
2020/12/06 10:02:46;;;;;;;12.50;5.90;;;5.30;90.40;;;;;;5056195;28;20025;-85
2020/12/06 10:05:12;;;;;;;13.37;6.17;;;5.30;90.30;;;;;;5056136;28;20067;-84
2020/12/06 10:07:38;;;;;;;14.03;6.57;;;5.30;90.30;;;;;;5055999;28;20196;-85
2020/12/06 10:10:05;;;;;;;12.20;6.07;;;5.30;90.40;;;;;;5056206;28;20029;-84
2020/12/06 10:12:31;;;;;;;11.23;5.93;;;5.30;90.10;;;;;;5055685;28;20052;-85
2020/12/06 10:14:56;;;;;;;12.33;6.20;;;5.30;90.20;;;;;;5055811;28;20053;-82
2020/12/06 10:17:22;;;;;;;11.17;5.97;;;5.30;90.10;;;;;;5055521;28;20382;-85
2020/12/06 10:19:48;;;;;;;9.03;5.37;;;5.30;90.10;;;;;;5055985;28;20071;-84
2020/12/06 10:22:13;;;;;;;9.97;5.50;;;5.30;90.00;;;;;;5055578;28;20029;-84
2020/12/06 10:24:39;;;;;;;13.00;6.17;;;5.30;90.00;;;;;;5056182;28;20236;-84
2020/12/06 10:27:04;;;;;;;12.07;5.90;;;5.30;90.10;;;;;;5055899;28;20096;-84
2020/12/06 10:29:30;;;;;;;11.43;5.73;;;5.20;90.00;;;;;;5054590;28;20469;-84
2020/12/06 10:31:58;;;;;;;11.70;6.17;;;5.30;90.20;;;;;;5055452;28;20029;-85
2020/12/06 10:34:24;;;;;;;12.83;6.47;;;5.30;90.20;;;;;;5054773;28;20044;-85
2020/12/06 10:36:51;;;;;;;10.50;5.50;;;5.30;90.20;;;;;;5055413;28;20024;-84
2020/12/06 10:39:17;;;;;;;11.17;5.37;;;5.40;90.10;;;;;;5055372;28;20032;-85
2020/12/06 10:41:49;;;;;;;9.03;5.23;;;5.40;89.90;;;;;;5054873;28;20025;-85
2020/12/06 10:44:15;;;;;;;;;;;5.50;89.60;;;;;;5055752;28;20090;-85
2020/12/06 10:46:41;;;;;;;10.73;5.37;;;5.50;89.30;;;;;;5054779;28;19905;-84
2020/12/06 10:49:07;;;;;;;9.70;4.93;;;5.60;89.40;;;;;;5055819;28;20032;-85
2020/12/06 10:51:33;;;;;;;9.17;5.33;;;5.50;89.40;;;;;;5054552;28;20025;-85
2020/12/06 10:53:59;;;;;;;10.63;5.53;;;5.50;89.60;;;;;;5056106;28;20040;-85
2020/12/06 10:56:26;;;;;;;9.33;5.63;;;5.60;89.70;;;;;;5055894;28;20131;-86
2020/12/06 10:58:55;;;;;;;9.27;5.17;;;5.60;89.80;;;;;;5055482;28;20048;-85
2020/12/06 11:01:28;;;;;;;9.77;5.47;;;5.60;89.80;;;;;;5055299;28;20035;-84
2020/12/06 11:03:54;;;;;;;8.50;5.00;;;5.60;89.50;;;;;;5055753;28;20029;-84
2020/12/06 11:06:24;;;;;;;10.30;6.13;;;5.60;89.50;;;;;;5054657;28;20021;-84
2020/12/06 11:08:51;;;;;;;9.90;6.00;;;5.60;89.60;;;;;;5049605;28;20028;-84
2020/12/06 11:11:18;;;;;;;9.27;5.50;;;5.60;89.40;;;;;;5054837;28;20024;-83
2020/12/06 11:13:45;;;;;;;12.33;6.83;;;5.60;89.50;;;;;;5054070;28;20025;-85
2020/12/06 11:16:15;;;;;;;10.63;6.47;;;5.60;90.00;;;;;;5054743;28;20025;-86
2020/12/06 11:18:41;;;;;;;12.33;7.10;;;5.50;90.10;;;;;;5054317;28;20116;-83
2020/12/06 11:21:06;;;;;;;11.23;7.07;;;5.60;90.10;;;;;;5054882;28;20056;-83
2020/12/06 11:23:32;;;;;;;13.50;7.70;;;5.60;90.10;;;;;;5053977;28;20029;-84
2020/12/06 11:25:58;;;;;;;13.93;7.80;;;5.60;90.00;;;;;;5055055;28;20036;-85
2020/12/06 11:28:23;;;;;;;15.40;8.50;;;5.60;90.20;;;;;;5054714;28;20033;-86
2020/12/06 11:30:49;;;;;;;13.40;8.20;;;5.50;90.00;;;;;;5053503;28;20444;-81
2020/12/06 11:33:15;;;;;;;16.57;9.03;;;5.50;90.10;;;;;;5054100;28;20029;-80
2020/12/06 11:35:42;;;;;;;15.17;9.10;;;5.50;90.00;;;;;;5053846;28;20025;-82
2020/12/06 11:38:08;;;;;;;17.20;8.70;;;5.50;90.00;;;;;;5054215;28;20049;-81
2020/12/06 11:40:34;;;;;;;17.10;9.60;;;5.50;90.00;;;;;;5053888;28;20029;-82
2020/12/06 11:43:00;;;;;;;17.03;9.23;;;5.50;89.80;;;;;;5055000;28;20025;-82
2020/12/06 11:45:25;;;;;;;18.57;9.67;;;5.50;89.70;;;;;;5054830;28;20052;-86
2020/12/06 11:47:51;;;;;;;18.77;9.77;;;5.50;90.10;;;;;;5054087;28;20025;-83
2020/12/06 11:50:17;;;;;;;19.37;10.10;;;5.50;89.70;;;;;;5055249;28;20070;-82
2020/12/06 11:52:43;;;;;;;21.90;9.27;;;5.50;89.70;;;;;;5053736;28;20025;-82
2020/12/06 11:55:10;;;;;;;18.57;8.97;;;5.50;89.60;;;;;;5053661;28;20079;-83
2020/12/06 11:57:36;;;;;;;20.50;10.17;;;5.50;89.70;;;;;;5053668;28;20063;-83
2020/12/06 12:00:04;;;;;;;19.23;9.93;;;5.50;89.70;;;;;;5054013;28;20029;-82
2020/12/06 12:02:30;;;;;;;17.17;9.20;;;5.50;90.00;;;;;;5053496;28;20029;-83
2020/12/06 12:04:55;;;;;;;20.90;10.30;;;5.60;90.00;;;;;;5048054;28;20055;-83
2020/12/06 12:07:21;;;;;;;23.23;11.07;;;5.50;90.00;;;;;;5053603;28;20485;-83
2020/12/06 12:09:47;;;;;;;24.00;11.03;;;5.50;90.00;;;;;;5053380;28;20032;-83
2020/12/06 12:12:13;;;;;;;21.27;10.37;;;5.50;90.10;;;;;;5053806;28;20029;-83
2020/12/06 12:14:38;;;;;;;22.93;11.07;;;5.50;90.00;;;;;;5052765;28;20021;-83
2020/12/06 12:17:04;;;;;;;20.93;10.40;;;5.50;90.00;;;;;;5053524;28;20033;-82
2020/12/06 12:19:30;;;;;;;23.07;11.20;;;5.50;90.10;;;;;;5052159;28;20028;-83
2020/12/06 12:21:55;;;;;;;24.80;12.20;;;5.50;90.00;;;;;;5053846;28;20029;-81
2020/12/06 12:24:21;;;;;;;25.67;12.67;;;5.50;90.10;;;;;;5053887;28;20025;-81
2020/12/06 12:26:46;;;;;;;25.23;12.27;;;5.50;90.00;;;;;;5053555;28;20087;-83
2020/12/06 12:29:12;;;;;;;32.43;13.77;;;5.50;89.70;;;;;;5054401;28;20116;-82
2020/12/06 12:31:38;;;;;;;28.07;13.47;;;5.50;90.00;;;;;;5054275;28;20485;-82
2020/12/06 12:34:03;;;;;;;28.73;12.80;;;5.60;89.90;;;;;;5054971;28;20036;-81
2020/12/06 12:36:30;;;;;;;26.63;13.27;;;5.50;89.30;;;;;;5053667;28;20473;-83
2020/12/06 12:38:56;;;;;;;28.63;12.97;;;5.60;89.40;;;;;;5053958;28;20079;-83
2020/12/06 12:41:22;;;;;;;27.73;12.50;;;5.60;89.50;;;;;;5053888;28;20021;-82